sensor_id;sensor_type;location;lat;lon;timestamp;P1;durP1;ratioP1;P2;durP2;ratioP2
71312;SDS011;59104;44.738;20.612;2022-09-30T00:02:09;2.80;;;1.88;;
71312;SDS011;59104;44.738;20.612;2022-09-30T00:04:36;2.60;;;1.73;;
71312;SDS011;59104;44.738;20.612;2022-09-30T00:07:02;3.42;;;1.52;;
71312;SDS011;59104;44.738;20.612;2022-09-30T00:09:27;3.80;;;1.83;;
71312;SDS011;59104;44.738;20.612;2022-09-30T00:11:53;2.97;;;1.83;;
71312;SDS011;59104;44.738;20.612;2022-09-30T00:14:19;2.90;;;1.60;;
71312;SDS011;59104;44.738;20.612;2022-09-30T00:16:45;3.53;;;1.50;;
71312;SDS011;59104;44.738;20.612;2022-09-30T00:19:10;2.80;;;1.58;;
71312;SDS011;59104;44.738;20.612;2022-09-30T00:21:36;2.75;;;1.83;;
71312;SDS011;59104;44.738;20.612;2022-09-30T00:24:01;2.35;;;1.60;;
71312;SDS011;59104;44.738;20.612;2022-09-30T00:26:27;2.70;;;1.80;;
71312;SDS011;59104;44.738;20.612;2022-09-30T00:28:54;2.67;;;1.80;;
71312;SDS011;59104;44.738;20.612;2022-09-30T00:31:20;4.43;;;1.60;;
71312;SDS011;59104;44.738;20.612;2022-09-30T00:33:47;2.88;;;1.42;;
71312;SDS011;59104;44.738;20.612;2022-09-30T00:36:31;4.82;;;1.40;;
71312;SDS011;59104;44.738;20.612;2022-09-30T00:38:57;2.03;;;1.35;;
71312;SDS011;59104;44.738;20.612;2022-09-30T00:41:22;1.98;;;1.10;;
71312;SDS011;59104;44.738;20.612;2022-09-30T00:43:49;2.00;;;1.20;;
71312;SDS011;59104;44.738;20.612;2022-09-30T00:48:46;2.42;;;1.38;;
71312;SDS011;59104;44.738;20.612;2022-09-30T00:51:15;2.13;;;1.35;;
71312;SDS011;59104;44.738;20.612;2022-09-30T00:56:16;2.67;;;1.00;;
71312;SDS011;59104;44.738;20.612;2022-09-30T01:01:11;2.75;;;1.17;;
71312;SDS011;59104;44.738;20.612;2022-09-30T01:03:37;1.38;;;0.90;;
71312;SDS011;59104;44.738;20.612;2022-09-30T01:06:05;1.52;;;0.98;;
71312;SDS011;59104;44.738;20.612;2022-09-30T01:08:30;2.03;;;1.13;;
71312;SDS011;59104;44.738;20.612;2022-09-30T01:10:57;2.17;;;1.08;;
71312;SDS011;59104;44.738;20.612;2022-09-30T01:13:25;1.85;;;1.05;;
71312;SDS011;59104;44.738;20.612;2022-09-30T01:20:54;2.55;;;1.40;;
71312;SDS011;59104;44.738;20.612;2022-09-30T01:33:26;1.85;;;1.15;;
71312;SDS011;59104;44.738;20.612;2022-09-30T01:38:37;2.00;;;1.20;;
71312;SDS011;59104;44.738;20.612;2022-09-30T01:41:08;2.42;;;1.27;;
71312;SDS011;59104;44.738;20.612;2022-09-30T01:43:42;1.73;;;1.13;;
71312;SDS011;59104;44.738;20.612;2022-09-30T01:51:33;1.90;;;1.17;;
71312;SDS011;59104;44.738;20.612;2022-09-30T01:54:01;1.40;;;1.10;;
71312;SDS011;59104;44.738;20.612;2022-09-30T01:58:56;1.02;;;0.85;;
71312;SDS011;59104;44.738;20.612;2022-09-30T02:01:26;1.38;;;1.00;;
71312;SDS011;59104;44.738;20.612;2022-09-30T02:03:57;1.77;;;1.20;;
71312;SDS011;59104;44.738;20.612;2022-09-30T02:06:31;1.52;;;1.00;;
71312;SDS011;59104;44.738;20.612;2022-09-30T02:09:01;1.95;;;1.10;;
71312;SDS011;59104;44.738;20.612;2022-09-30T02:11:32;1.60;;;0.90;;
71312;SDS011;59104;44.738;20.612;2022-09-30T02:16:26;1.42;;;1.02;;
71312;SDS011;59104;44.738;20.612;2022-09-30T02:18:54;1.30;;;1.05;;
71312;SDS011;59104;44.738;20.612;2022-09-30T02:21:22;1.50;;;1.08;;
71312;SDS011;59104;44.738;20.612;2022-09-30T02:23:49;1.73;;;1.10;;
71312;SDS011;59104;44.738;20.612;2022-09-30T02:26:20;1.27;;;1.00;;
71312;SDS011;59104;44.738;20.612;2022-09-30T02:28:52;2.13;;;1.30;;
71312;SDS011;59104;44.738;20.612;2022-09-30T02:31:19;3.53;;;1.67;;
71312;SDS011;59104;44.738;20.612;2022-09-30T02:33:46;3.03;;;1.77;;
71312;SDS011;59104;44.738;20.612;2022-09-30T02:36:16;2.05;;;1.45;;
71312;SDS011;59104;44.738;20.612;2022-09-30T02:38:43;1.85;;;1.38;;
71312;SDS011;59104;44.738;20.612;2022-09-30T02:41:11;2.35;;;1.38;;
71312;SDS011;59104;44.738;20.612;2022-09-30T02:43:37;1.85;;;1.25;;
71312;SDS011;59104;44.738;20.612;2022-09-30T02:46:08;2.03;;;1.13;;
71312;SDS011;59104;44.738;20.612;2022-09-30T02:48:41;1.60;;;1.00;;
71312;SDS011;59104;44.738;20.612;2022-09-30T02:56:47;3.08;;;1.33;;
71312;SDS011;59104;44.738;20.612;2022-09-30T02:59:14;2.85;;;1.60;;
71312;SDS011;59104;44.738;20.612;2022-09-30T03:01:39;2.10;;;1.60;;
71312;SDS011;59104;44.738;20.612;2022-09-30T03:04:10;3.33;;;1.60;;
71312;SDS011;59104;44.738;20.612;2022-09-30T03:06:36;1.83;;;1.63;;
71312;SDS011;59104;44.738;20.612;2022-09-30T03:09:02;2.22;;;1.38;;
71312;SDS011;59104;44.738;20.612;2022-09-30T03:11:28;2.22;;;1.42;;
71312;SDS011;59104;44.738;20.612;2022-09-30T03:27:24;1.90;;;1.10;;
71312;SDS011;59104;44.738;20.612;2022-09-30T03:29:59;1.88;;;1.20;;
71312;SDS011;59104;44.738;20.612;2022-09-30T03:32:45;2.65;;;1.88;;
71312;SDS011;59104;44.738;20.612;2022-09-30T03:37:49;3.72;;;1.80;;
71312;SDS011;59104;44.738;20.612;2022-09-30T03:41:18;3.05;;;1.67;;
71312;SDS011;59104;44.738;20.612;2022-09-30T03:43:18;3.00;;;1.58;;
71312;SDS011;59104;44.738;20.612;2022-09-30T03:45:46;3.50;;;1.60;;
71312;SDS011;59104;44.738;20.612;2022-09-30T03:48:14;2.20;;;1.40;;
71312;SDS011;59104;44.738;20.612;2022-09-30T03:50:40;2.50;;;1.38;;
71312;SDS011;59104;44.738;20.612;2022-09-30T03:53:09;1.95;;;1.33;;
71312;SDS011;59104;44.738;20.612;2022-09-30T03:55:44;1.80;;;1.30;;
71312;SDS011;59104;44.738;20.612;2022-09-30T03:58:12;4.05;;;1.38;;
71312;SDS011;59104;44.738;20.612;2022-09-30T04:00:38;3.13;;;1.77;;
71312;SDS011;59104;44.738;20.612;2022-09-30T04:03:04;2.42;;;1.77;;
71312;SDS011;59104;44.738;20.612;2022-09-30T04:05:30;3.70;;;1.80;;
71312;SDS011;59104;44.738;20.612;2022-09-30T04:07:56;3.50;;;1.70;;
71312;SDS011;59104;44.738;20.612;2022-09-30T04:10:21;1.83;;;1.40;;
71312;SDS011;59104;44.738;20.612;2022-09-30T04:12:46;3.10;;;1.50;;
71312;SDS011;59104;44.738;20.612;2022-09-30T04:15:12;2.45;;;1.40;;
71312;SDS011;59104;44.738;20.612;2022-09-30T04:17:37;2.30;;;1.25;;
71312;SDS011;59104;44.738;20.612;2022-09-30T04:20:03;1.13;;;1.00;;
71312;SDS011;59104;44.738;20.612;2022-09-30T04:22:28;1.60;;;1.25;;
71312;SDS011;59104;44.738;20.612;2022-09-30T04:24:54;2.45;;;1.70;;
71312;SDS011;59104;44.738;20.612;2022-09-30T04:27:19;2.80;;;1.90;;
71312;SDS011;59104;44.738;20.612;2022-09-30T04:29:44;1.83;;;1.45;;
71312;SDS011;59104;44.738;20.612;2022-09-30T04:32:10;6.47;;;1.70;;
71312;SDS011;59104;44.738;20.612;2022-09-30T04:34:35;2.75;;;1.60;;
71312;SDS011;59104;44.738;20.612;2022-09-30T04:37:01;2.17;;;1.40;;
71312;SDS011;59104;44.738;20.612;2022-09-30T04:39:27;1.75;;;1.00;;
71312;SDS011;59104;44.738;20.612;2022-09-30T04:41:52;2.40;;;1.48;;
71312;SDS011;59104;44.738;20.612;2022-09-30T04:44:18;1.27;;;1.00;;
71312;SDS011;59104;44.738;20.612;2022-09-30T04:46:43;2.95;;;1.30;;
71312;SDS011;59104;44.738;20.612;2022-09-30T04:49:08;1.77;;;1.10;;
71312;SDS011;59104;44.738;20.612;2022-09-30T04:51:34;1.65;;;0.80;;
71312;SDS011;59104;44.738;20.612;2022-09-30T04:54:00;3.50;;;1.48;;
71312;SDS011;59104;44.738;20.612;2022-09-30T04:56:26;3.35;;;1.83;;
71312;SDS011;59104;44.738;20.612;2022-09-30T04:58:52;1.48;;;1.33;;
71312;SDS011;59104;44.738;20.612;2022-09-30T05:01:18;2.35;;;1.75;;
71312;SDS011;59104;44.738;20.612;2022-09-30T05:03:44;2.63;;;1.60;;
71312;SDS011;59104;44.738;20.612;2022-09-30T05:06:09;3.25;;;1.90;;
71312;SDS011;59104;44.738;20.612;2022-09-30T05:08:35;14.15;;;8.07;;
71312;SDS011;59104;44.738;20.612;2022-09-30T05:11:02;16.63;;;8.65;;
71312;SDS011;59104;44.738;20.612;2022-09-30T05:13:29;11.30;;;7.47;;
71312;SDS011;59104;44.738;20.612;2022-09-30T05:15:55;11.77;;;6.30;;
71312;SDS011;59104;44.738;20.612;2022-09-30T05:18:21;9.48;;;5.75;;
71312;SDS011;59104;44.738;20.612;2022-09-30T05:20:50;6.47;;;4.25;;
71312;SDS011;59104;44.738;20.612;2022-09-30T05:23:16;6.20;;;3.83;;
71312;SDS011;59104;44.738;20.612;2022-09-30T05:25:42;7.05;;;3.42;;
71312;SDS011;59104;44.738;20.612;2022-09-30T05:28:08;5.40;;;3.40;;
71312;SDS011;59104;44.738;20.612;2022-09-30T05:30:33;5.63;;;3.50;;
71312;SDS011;59104;44.738;20.612;2022-09-30T05:32:58;5.53;;;2.67;;
71312;SDS011;59104;44.738;20.612;2022-09-30T05:35:24;5.43;;;3.38;;
71312;SDS011;59104;44.738;20.612;2022-09-30T05:37:49;6.25;;;3.28;;
71312;SDS011;59104;44.738;20.612;2022-09-30T05:40:15;4.10;;;2.85;;
71312;SDS011;59104;44.738;20.612;2022-09-30T05:42:40;4.40;;;2.67;;
71312;SDS011;59104;44.738;20.612;2022-09-30T05:45:05;3.95;;;2.08;;
71312;SDS011;59104;44.738;20.612;2022-09-30T05:47:34;5.35;;;2.20;;
71312;SDS011;59104;44.738;20.612;2022-09-30T05:49:59;3.00;;;1.90;;
71312;SDS011;59104;44.738;20.612;2022-09-30T05:52:25;3.15;;;1.65;;
71312;SDS011;59104;44.738;20.612;2022-09-30T05:54:50;2.70;;;1.60;;
71312;SDS011;59104;44.738;20.612;2022-09-30T05:57:15;2.88;;;1.73;;
71312;SDS011;59104;44.738;20.612;2022-09-30T05:59:41;2.72;;;1.40;;
71312;SDS011;59104;44.738;20.612;2022-09-30T06:02:08;2.55;;;1.65;;
71312;SDS011;59104;44.738;20.612;2022-09-30T06:04:33;3.00;;;1.63;;
71312;SDS011;59104;44.738;20.612;2022-09-30T06:06:59;2.85;;;1.63;;
71312;SDS011;59104;44.738;20.612;2022-09-30T06:09:24;3.78;;;2.00;;
71312;SDS011;59104;44.738;20.612;2022-09-30T06:11:50;3.20;;;2.28;;
71312;SDS011;59104;44.738;20.612;2022-09-30T06:14:16;4.10;;;2.65;;
71312;SDS011;59104;44.738;20.612;2022-09-30T06:16:44;5.90;;;3.28;;
71312;SDS011;59104;44.738;20.612;2022-09-30T06:19:10;4.55;;;2.85;;
71312;SDS011;59104;44.738;20.612;2022-09-30T06:21:36;4.70;;;2.90;;
71312;SDS011;59104;44.738;20.612;2022-09-30T06:24:01;6.70;;;4.32;;
71312;SDS011;59104;44.738;20.612;2022-09-30T06:26:27;7.82;;;5.13;;
71312;SDS011;59104;44.738;20.612;2022-09-30T06:28:52;5.78;;;4.28;;
71312;SDS011;59104;44.738;20.612;2022-09-30T06:31:17;10.02;;;5.35;;
71312;SDS011;59104;44.738;20.612;2022-09-30T06:33:43;7.00;;;4.38;;
71312;SDS011;59104;44.738;20.612;2022-09-30T06:36:08;6.03;;;4.20;;
71312;SDS011;59104;44.738;20.612;2022-09-30T06:38:34;4.90;;;3.47;;
71312;SDS011;59104;44.738;20.612;2022-09-30T06:41:04;4.85;;;2.95;;
71312;SDS011;59104;44.738;20.612;2022-09-30T06:43:30;3.50;;;3.03;;
71312;SDS011;59104;44.738;20.612;2022-09-30T06:45:55;7.70;;;2.72;;
71312;SDS011;59104;44.738;20.612;2022-09-30T06:48:20;2.88;;;2.28;;
71312;SDS011;59104;44.738;20.612;2022-09-30T06:50:47;7.40;;;2.28;;
71312;SDS011;59104;44.738;20.612;2022-09-30T06:53:12;3.25;;;1.98;;
71312;SDS011;59104;44.738;20.612;2022-09-30T06:55:38;5.05;;;2.97;;
71312;SDS011;59104;44.738;20.612;2022-09-30T06:58:04;3.75;;;2.05;;
71312;SDS011;59104;44.738;20.612;2022-09-30T07:00:32;3.20;;;2.40;;
71312;SDS011;59104;44.738;20.612;2022-09-30T07:02:57;5.72;;;2.45;;
71312;SDS011;59104;44.738;20.612;2022-09-30T07:05:23;3.55;;;2.15;;
71312;SDS011;59104;44.738;20.612;2022-09-30T07:07:50;4.25;;;2.15;;
71312;SDS011;59104;44.738;20.612;2022-09-30T07:10:16;3.55;;;2.13;;
71312;SDS011;59104;44.738;20.612;2022-09-30T07:12:41;3.22;;;1.95;;
71312;SDS011;59104;44.738;20.612;2022-09-30T07:15:07;2.30;;;1.80;;
71312;SDS011;59104;44.738;20.612;2022-09-30T07:17:32;4.40;;;2.03;;
71312;SDS011;59104;44.738;20.612;2022-09-30T07:19:58;3.40;;;1.58;;
71312;SDS011;59104;44.738;20.612;2022-09-30T07:22:23;3.33;;;1.55;;
71312;SDS011;59104;44.738;20.612;2022-09-30T07:24:52;5.53;;;2.20;;
71312;SDS011;59104;44.738;20.612;2022-09-30T07:27:18;4.05;;;2.10;;
71312;SDS011;59104;44.738;20.612;2022-09-30T07:29:43;3.33;;;2.28;;
71312;SDS011;59104;44.738;20.612;2022-09-30T07:32:09;5.07;;;2.35;;
71312;SDS011;59104;44.738;20.612;2022-09-30T07:34:36;2.83;;;1.80;;
71312;SDS011;59104;44.738;20.612;2022-09-30T07:37:01;2.80;;;1.60;;
71312;SDS011;59104;44.738;20.612;2022-09-30T07:39:28;3.13;;;2.00;;
71312;SDS011;59104;44.738;20.612;2022-09-30T07:41:53;5.45;;;2.08;;
71312;SDS011;59104;44.738;20.612;2022-09-30T07:44:19;4.45;;;2.13;;
71312;SDS011;59104;44.738;20.612;2022-09-30T07:46:44;2.95;;;1.95;;
71312;SDS011;59104;44.738;20.612;2022-09-30T07:49:14;2.90;;;1.80;;
71312;SDS011;59104;44.738;20.612;2022-09-30T07:51:48;2.08;;;1.70;;
71312;SDS011;59104;44.738;20.612;2022-09-30T07:54:15;2.80;;;1.77;;
71312;SDS011;59104;44.738;20.612;2022-09-30T07:56:41;2.92;;;1.55;;
71312;SDS011;59104;44.738;20.612;2022-09-30T07:59:08;2.40;;;1.63;;
71312;SDS011;59104;44.738;20.612;2022-09-30T08:01:34;3.83;;;1.75;;
71312;SDS011;59104;44.738;20.612;2022-09-30T08:04:01;1.88;;;1.50;;
71312;SDS011;59104;44.738;20.612;2022-09-30T08:06:27;2.97;;;1.42;;
71312;SDS011;59104;44.738;20.612;2022-09-30T08:08:54;2.38;;;1.25;;
71312;SDS011;59104;44.738;20.612;2022-09-30T08:11:20;2.25;;;1.30;;
71312;SDS011;59104;44.738;20.612;2022-09-30T08:13:55;2.58;;;1.60;;
71312;SDS011;59104;44.738;20.612;2022-09-30T08:16:21;3.22;;;1.20;;
71312;SDS011;59104;44.738;20.612;2022-09-30T08:18:47;2.63;;;1.25;;
71312;SDS011;59104;44.738;20.612;2022-09-30T08:21:12;2.05;;;1.38;;
71312;SDS011;59104;44.738;20.612;2022-09-30T08:23:38;2.15;;;1.40;;
71312;SDS011;59104;44.738;20.612;2022-09-30T08:26:05;1.00;;;0.90;;
71312;SDS011;59104;44.738;20.612;2022-09-30T08:28:30;1.58;;;1.02;;
71312;SDS011;59104;44.738;20.612;2022-09-30T08:31:03;1.88;;;1.20;;
71312;SDS011;59104;44.738;20.612;2022-09-30T08:33:29;1.52;;;1.23;;
71312;SDS011;59104;44.738;20.612;2022-09-30T08:35:55;2.13;;;1.30;;
71312;SDS011;59104;44.738;20.612;2022-09-30T08:38:20;1.92;;;1.23;;
71312;SDS011;59104;44.738;20.612;2022-09-30T08:40:52;2.75;;;1.27;;
71312;SDS011;59104;44.738;20.612;2022-09-30T08:45:49;1.97;;;1.23;;
71312;SDS011;59104;44.738;20.612;2022-09-30T08:53:24;3.00;;;1.30;;
71312;SDS011;59104;44.738;20.612;2022-09-30T08:55:50;1.77;;;1.58;;
71312;SDS011;59104;44.738;20.612;2022-09-30T09:00:42;3.97;;;1.65;;
71312;SDS011;59104;44.738;20.612;2022-09-30T09:03:08;3.50;;;1.63;;
71312;SDS011;59104;44.738;20.612;2022-09-30T09:10:44;5.05;;;1.92;;
71312;SDS011;59104;44.738;20.612;2022-09-30T09:13:14;4.30;;;1.60;;
71312;SDS011;59104;44.738;20.612;2022-09-30T09:18:25;2.72;;;1.70;;
71312;SDS011;59104;44.738;20.612;2022-09-30T09:23:28;3.33;;;1.50;;
71312;SDS011;59104;44.738;20.612;2022-09-30T09:25:55;3.75;;;1.45;;
71312;SDS011;59104;44.738;20.612;2022-09-30T09:30:51;2.15;;;1.45;;
71312;SDS011;59104;44.738;20.612;2022-09-30T09:33:19;2.20;;;1.73;;
71312;SDS011;59104;44.738;20.612;2022-09-30T09:46:18;3.90;;;1.95;;
71312;SDS011;59104;44.738;20.612;2022-09-30T09:48:45;2.85;;;1.70;;
71312;SDS011;59104;44.738;20.612;2022-09-30T09:51:32;2.47;;;1.60;;
71312;SDS011;59104;44.738;20.612;2022-09-30T09:54:00;8.15;;;4.13;;
71312;SDS011;59104;44.738;20.612;2022-09-30T09:56:27;7.28;;;4.15;;
71312;SDS011;59104;44.738;20.612;2022-09-30T09:59:11;7.20;;;2.97;;
71312;SDS011;59104;44.738;20.612;2022-09-30T10:01:38;3.35;;;1.85;;
71312;SDS011;59104;44.738;20.612;2022-09-30T10:04:08;3.33;;;2.10;;
71312;SDS011;59104;44.738;20.612;2022-09-30T10:06:42;1.88;;;1.52;;
71312;SDS011;59104;44.738;20.612;2022-09-30T10:09:22;3.28;;;1.88;;
71312;SDS011;59104;44.738;20.612;2022-09-30T10:11:48;5.38;;;2.10;;
71312;SDS011;59104;44.738;20.612;2022-09-30T10:14:17;3.15;;;1.70;;
71312;SDS011;59104;44.738;20.612;2022-09-30T10:16:44;3.00;;;1.35;;
71312;SDS011;59104;44.738;20.612;2022-09-30T10:19:24;2.15;;;1.38;;
71312;SDS011;59104;44.738;20.612;2022-09-30T10:21:54;1.88;;;1.35;;
71312;SDS011;59104;44.738;20.612;2022-09-30T10:24:37;2.85;;;1.23;;
71312;SDS011;59104;44.738;20.612;2022-09-30T10:27:02;1.70;;;1.30;;
71312;SDS011;59104;44.738;20.612;2022-09-30T10:29:29;2.08;;;1.45;;
71312;SDS011;59104;44.738;20.612;2022-09-30T10:31:56;2.05;;;1.40;;
71312;SDS011;59104;44.738;20.612;2022-09-30T10:34:29;1.42;;;1.00;;
71312;SDS011;59104;44.738;20.612;2022-09-30T10:36:56;3.33;;;1.40;;
71312;SDS011;59104;44.738;20.612;2022-09-30T10:39:29;3.15;;;1.48;;
71312;SDS011;59104;44.738;20.612;2022-09-30T10:42:07;1.73;;;1.40;;
71312;SDS011;59104;44.738;20.612;2022-09-30T10:47:34;3.13;;;1.70;;
71312;SDS011;59104;44.738;20.612;2022-09-30T10:50:04;3.03;;;1.50;;
71312;SDS011;59104;44.738;20.612;2022-09-30T10:52:32;3.30;;;1.33;;
71312;SDS011;59104;44.738;20.612;2022-09-30T10:55:14;2.40;;;0.80;;
71312;SDS011;59104;44.738;20.612;2022-09-30T10:57:45;3.80;;;1.50;;
71312;SDS011;59104;44.738;20.612;2022-09-30T11:15:27;3.05;;;1.65;;
71312;SDS011;59104;44.738;20.612;2022-09-30T11:18:02;2.13;;;1.05;;
71312;SDS011;59104;44.738;20.612;2022-09-30T11:20:31;4.10;;;1.50;;
71312;SDS011;59104;44.738;20.612;2022-09-30T11:23:03;2.55;;;1.17;;
71312;SDS011;59104;44.738;20.612;2022-09-30T11:35:57;1.70;;;0.80;;
71312;SDS011;59104;44.738;20.612;2022-09-30T11:41:03;2.67;;;1.05;;
71312;SDS011;59104;44.738;20.612;2022-09-30T11:56:30;2.15;;;1.20;;
71312;SDS011;59104;44.738;20.612;2022-09-30T11:58:57;2.90;;;1.67;;
71312;SDS011;59104;44.738;20.612;2022-09-30T12:01:33;1.77;;;1.00;;
71312;SDS011;59104;44.738;20.612;2022-09-30T12:04:00;1.98;;;1.10;;
71312;SDS011;59104;44.738;20.612;2022-09-30T12:06:34;2.67;;;1.20;;
71312;SDS011;59104;44.738;20.612;2022-09-30T12:09:05;1.65;;;1.20;;
71312;SDS011;59104;44.738;20.612;2022-09-30T12:11:34;1.70;;;0.90;;
71312;SDS011;59104;44.738;20.612;2022-09-30T12:14:08;1.15;;;0.90;;
71312;SDS011;59104;44.738;20.612;2022-09-30T12:19:10;2.90;;;1.10;;
71312;SDS011;59104;44.738;20.612;2022-09-30T12:21:38;1.27;;;0.95;;
71312;SDS011;59104;44.738;20.612;2022-09-30T12:26:36;3.00;;;0.90;;
71312;SDS011;59104;44.738;20.612;2022-09-30T12:29:03;1.00;;;0.80;;
71312;SDS011;59104;44.738;20.612;2022-09-30T12:37:47;1.35;;;0.82;;
71312;SDS011;59104;44.738;20.612;2022-09-30T12:42:36;1.30;;;1.00;;
71312;SDS011;59104;44.738;20.612;2022-09-30T12:47:46;1.05;;;0.88;;
71312;SDS011;59104;44.738;20.612;2022-09-30T12:50:14;1.23;;;0.80;;
71312;SDS011;59104;44.738;20.612;2022-09-30T12:52:40;1.98;;;1.00;;
71312;SDS011;59104;44.738;20.612;2022-09-30T12:55:07;1.33;;;0.68;;
71312;SDS011;59104;44.738;20.612;2022-09-30T12:57:38;1.90;;;1.27;;
71312;SDS011;59104;44.738;20.612;2022-09-30T13:00:05;2.35;;;0.73;;
71312;SDS011;59104;44.738;20.612;2022-09-30T13:02:38;1.13;;;1.02;;
71312;SDS011;59104;44.738;20.612;2022-09-30T13:10:30;1.90;;;1.00;;
71312;SDS011;59104;44.738;20.612;2022-09-30T13:15:38;2.42;;;1.17;;
71312;SDS011;59104;44.738;20.612;2022-09-30T13:27:05;1.90;;;0.70;;
71312;SDS011;59104;44.738;20.612;2022-09-30T13:31:25;1.15;;;0.90;;
71312;SDS011;59104;44.738;20.612;2022-09-30T13:37:22;1.67;;;0.80;;
71312;SDS011;59104;44.738;20.612;2022-09-30T13:39:20;1.40;;;0.73;;
71312;SDS011;59104;44.738;20.612;2022-09-30T13:47:43;1.05;;;0.70;;
71312;SDS011;59104;44.738;20.612;2022-09-30T13:52:51;1.60;;;0.77;;
71312;SDS011;59104;44.738;20.612;2022-09-30T13:55:23;1.02;;;0.65;;
71312;SDS011;59104;44.738;20.612;2022-09-30T13:57:54;1.17;;;0.70;;
71312;SDS011;59104;44.738;20.612;2022-09-30T14:00:27;0.88;;;0.70;;
71312;SDS011;59104;44.738;20.612;2022-09-30T14:03:05;0.68;;;0.52;;
71312;SDS011;59104;44.738;20.612;2022-09-30T14:23:57;2.25;;;1.35;;
71312;SDS011;59104;44.738;20.612;2022-09-30T14:26:46;5.35;;;2.30;;
71312;SDS011;59104;44.738;20.612;2022-09-30T14:31:45;3.50;;;2.07;;
71312;SDS011;59104;44.738;20.612;2022-09-30T14:34:11;3.47;;;2.00;;
71312;SDS011;59104;44.738;20.612;2022-09-30T14:36:37;4.95;;;2.10;;
71312;SDS011;59104;44.738;20.612;2022-09-30T14:39:03;2.00;;;1.27;;
71312;SDS011;59104;44.738;20.612;2022-09-30T14:41:30;2.20;;;1.50;;
71312;SDS011;59104;44.738;20.612;2022-09-30T14:43:59;1.48;;;1.10;;
71312;SDS011;59104;44.738;20.612;2022-09-30T14:46:33;1.80;;;1.17;;
71312;SDS011;59104;44.738;20.612;2022-09-30T14:49:01;3.33;;;1.40;;
71312;SDS011;59104;44.738;20.612;2022-09-30T14:51:37;1.73;;;1.20;;
71312;SDS011;59104;44.738;20.612;2022-09-30T14:56:42;1.67;;;1.20;;
71312;SDS011;59104;44.738;20.612;2022-09-30T14:59:18;2.45;;;1.25;;
71312;SDS011;59104;44.738;20.612;2022-09-30T15:01:44;2.20;;;1.33;;
71312;SDS011;59104;44.738;20.612;2022-09-30T15:04:16;1.85;;;0.98;;
71312;SDS011;59104;44.738;20.612;2022-09-30T15:06:44;1.00;;;0.90;;
71312;SDS011;59104;44.738;20.612;2022-09-30T15:09:15;0.95;;;0.70;;
71312;SDS011;59104;44.738;20.612;2022-09-30T15:11:41;1.42;;;0.82;;
71312;SDS011;59104;44.738;20.612;2022-09-30T15:14:10;1.77;;;0.70;;
71312;SDS011;59104;44.738;20.612;2022-09-30T15:16:48;1.00;;;0.80;;
71312;SDS011;59104;44.738;20.612;2022-09-30T15:19:18;1.65;;;0.60;;
71312;SDS011;59104;44.738;20.612;2022-09-30T15:21:45;1.05;;;0.60;;
71312;SDS011;59104;44.738;20.612;2022-09-30T15:24:13;3.05;;;1.38;;
71312;SDS011;59104;44.738;20.612;2022-09-30T15:26:39;2.65;;;1.52;;
71312;SDS011;59104;44.738;20.612;2022-09-30T15:29:07;2.13;;;1.30;;
71312;SDS011;59104;44.738;20.612;2022-09-30T15:31:33;2.38;;;1.10;;
71312;SDS011;59104;44.738;20.612;2022-09-30T15:34:03;1.83;;;1.00;;
71312;SDS011;59104;44.738;20.612;2022-09-30T15:36:28;1.30;;;0.90;;
71312;SDS011;59104;44.738;20.612;2022-09-30T15:38:54;1.50;;;1.30;;
71312;SDS011;59104;44.738;20.612;2022-09-30T15:41:20;1.23;;;0.90;;
71312;SDS011;59104;44.738;20.612;2022-09-30T15:43:46;1.13;;;1.02;;
71312;SDS011;59104;44.738;20.612;2022-09-30T15:48:45;1.27;;;1.17;;
71312;SDS011;59104;44.738;20.612;2022-09-30T15:51:30;1.38;;;0.90;;
71312;SDS011;59104;44.738;20.612;2022-09-30T15:54:00;2.33;;;1.00;;
71312;SDS011;59104;44.738;20.612;2022-09-30T15:56:29;1.65;;;1.08;;
71312;SDS011;59104;44.738;20.612;2022-09-30T16:01:21;2.55;;;1.20;;
71312;SDS011;59104;44.738;20.612;2022-09-30T16:04:02;1.95;;;1.60;;
71312;SDS011;59104;44.738;20.612;2022-09-30T16:06:33;2.75;;;1.20;;
71312;SDS011;59104;44.738;20.612;2022-09-30T16:09:04;2.53;;;1.30;;
71312;SDS011;59104;44.738;20.612;2022-09-30T16:11:34;1.60;;;1.08;;
71312;SDS011;59104;44.738;20.612;2022-09-30T16:14:01;3.05;;;1.40;;
71312;SDS011;59104;44.738;20.612;2022-09-30T16:16:29;2.05;;;1.58;;
71312;SDS011;59104;44.738;20.612;2022-09-30T16:18:56;1.52;;;1.00;;
71312;SDS011;59104;44.738;20.612;2022-09-30T16:26:53;2.33;;;1.42;;
71312;SDS011;59104;44.738;20.612;2022-09-30T16:29:22;2.00;;;1.30;;
71312;SDS011;59104;44.738;20.612;2022-09-30T16:31:48;1.63;;;1.33;;
71312;SDS011;59104;44.738;20.612;2022-09-30T16:34:21;2.97;;;1.95;;
71312;SDS011;59104;44.738;20.612;2022-09-30T16:36:48;4.40;;;2.60;;
71312;SDS011;59104;44.738;20.612;2022-09-30T16:39:14;4.03;;;2.38;;
71312;SDS011;59104;44.738;20.612;2022-09-30T16:41:41;4.55;;;2.47;;
71312;SDS011;59104;44.738;20.612;2022-09-30T16:44:07;3.85;;;2.30;;
71312;SDS011;59104;44.738;20.612;2022-09-30T16:46:32;3.90;;;2.40;;
71312;SDS011;59104;44.738;20.612;2022-09-30T16:48:58;4.55;;;2.60;;
71312;SDS011;59104;44.738;20.612;2022-09-30T16:51:24;4.40;;;2.15;;
71312;SDS011;59104;44.738;20.612;2022-09-30T16:53:49;5.80;;;3.03;;
71312;SDS011;59104;44.738;20.612;2022-09-30T16:56:15;5.80;;;3.90;;
71312;SDS011;59104;44.738;20.612;2022-09-30T16:58:42;6.50;;;4.00;;
71312;SDS011;59104;44.738;20.612;2022-09-30T17:01:13;5.85;;;3.38;;
71312;SDS011;59104;44.738;20.612;2022-09-30T17:03:40;5.28;;;3.78;;
71312;SDS011;59104;44.738;20.612;2022-09-30T17:06:05;6.07;;;3.50;;
71312;SDS011;59104;44.738;20.612;2022-09-30T17:08:31;4.80;;;3.03;;
71312;SDS011;59104;44.738;20.612;2022-09-30T17:10:57;3.70;;;2.80;;
71312;SDS011;59104;44.738;20.612;2022-09-30T17:13:23;3.45;;;2.28;;
71312;SDS011;59104;44.738;20.612;2022-09-30T17:15:50;4.45;;;2.25;;
71312;SDS011;59104;44.738;20.612;2022-09-30T17:18:16;3.10;;;2.05;;
71312;SDS011;59104;44.738;20.612;2022-09-30T17:20:42;2.33;;;1.88;;
71312;SDS011;59104;44.738;20.612;2022-09-30T17:23:09;3.97;;;2.03;;
71312;SDS011;59104;44.738;20.612;2022-09-30T17:25:37;3.90;;;1.98;;
71312;SDS011;59104;44.738;20.612;2022-09-30T17:28:05;3.78;;;1.95;;
71312;SDS011;59104;44.738;20.612;2022-09-30T17:30:30;3.20;;;1.98;;
71312;SDS011;59104;44.738;20.612;2022-09-30T17:32:57;4.90;;;2.00;;
71312;SDS011;59104;44.738;20.612;2022-09-30T17:35:23;3.67;;;1.67;;
71312;SDS011;59104;44.738;20.612;2022-09-30T17:37:49;2.80;;;1.83;;
71312;SDS011;59104;44.738;20.612;2022-09-30T17:40:14;3.15;;;1.60;;
71312;SDS011;59104;44.738;20.612;2022-09-30T17:42:58;3.17;;;1.65;;
71312;SDS011;59104;44.738;20.612;2022-09-30T17:45:35;2.17;;;1.40;;
71312;SDS011;59104;44.738;20.612;2022-09-30T17:48:02;2.85;;;1.58;;
71312;SDS011;59104;44.738;20.612;2022-09-30T17:50:27;2.38;;;1.80;;
71312;SDS011;59104;44.738;20.612;2022-09-30T17:52:53;2.25;;;1.88;;
71312;SDS011;59104;44.738;20.612;2022-09-30T17:55:19;4.43;;;2.20;;
71312;SDS011;59104;44.738;20.612;2022-09-30T17:57:44;6.20;;;2.28;;
71312;SDS011;59104;44.738;20.612;2022-09-30T18:00:10;4.85;;;2.90;;
71312;SDS011;59104;44.738;20.612;2022-09-30T18:02:36;7.53;;;4.35;;
71312;SDS011;59104;44.738;20.612;2022-09-30T18:05:03;6.10;;;4.05;;
71312;SDS011;59104;44.738;20.612;2022-09-30T18:07:28;5.10;;;3.10;;
71312;SDS011;59104;44.738;20.612;2022-09-30T18:09:54;4.97;;;3.20;;
71312;SDS011;59104;44.738;20.612;2022-09-30T18:12:19;5.40;;;3.60;;
71312;SDS011;59104;44.738;20.612;2022-09-30T18:14:45;6.10;;;3.60;;